createdAt,value
2022-11-17T00:01:53.880Z,7.42
2022-11-17T00:04:20.579Z,7.43
2022-11-17T00:06:47.096Z,7.41
2022-11-17T00:09:17.691Z,7.38
2022-11-17T00:12:03.984Z,7.39
2022-11-17T00:14:33.661Z,7.41
2022-11-17T00:17:01.225Z,7.38
2022-11-17T00:19:46.623Z,7.36
2022-11-17T00:22:13.329Z,7.35
2022-11-17T00:24:39.988Z,7.35
2022-11-17T00:27:06.646Z,7.36
2022-11-17T00:29:37.380Z,7.35
2022-11-17T00:32:24.943Z,7.33
2022-11-17T00:34:51.422Z,7.32
2022-11-17T00:37:18.012Z,7.29
2022-11-17T00:39:44.512Z,7.28
2022-11-17T00:42:10.998Z,7.30
2022-11-17T00:44:37.499Z,7.36
2022-11-17T00:47:03.998Z,7.35
2022-11-17T00:49:30.512Z,7.35
2022-11-17T00:51:57.760Z,7.38
2022-11-17T00:54:24.669Z,7.37
2022-11-17T00:56:51.412Z,7.38
2022-11-17T00:59:18.096Z,7.34
2022-11-17T01:01:45.129Z,7.36
2022-11-17T01:04:13.324Z,7.33
2022-11-17T01:06:45.262Z,7.29
2022-11-17T01:09:30.240Z,7.27
2022-11-17T01:11:56.632Z,7.28
2022-11-17T01:14:26.136Z,7.30
2022-11-17T01:16:53.731Z,7.31
2022-11-17T01:19:21.958Z,7.36
2022-11-17T01:21:48.934Z,7.38
2022-11-17T01:24:16.848Z,7.37
2022-11-17T01:26:45.127Z,7.35
2022-11-17T01:29:13.957Z,7.32
2022-11-17T01:31:43.520Z,7.27
2022-11-17T01:34:10.572Z,7.29
2022-11-17T01:36:58.453Z,7.27
2022-11-17T01:39:26.400Z,7.27
2022-11-17T01:41:54.016Z,7.24
2022-11-17T01:44:43.864Z,7.23
2022-11-17T01:47:30.496Z,7.21
2022-11-17T01:50:06.911Z,7.23
2022-11-17T01:52:36.165Z,7.23
2022-11-17T01:55:03.781Z,7.20
2022-11-17T01:57:41.201Z,7.19
2022-11-17T02:00:10.542Z,7.20
2022-11-17T02:02:39.366Z,7.21
2022-11-17T02:05:05.944Z,7.20
2022-11-17T02:07:36.561Z,7.20
2022-11-17T02:10:05.194Z,7.23
2022-11-17T02:12:33.758Z,7.23
2022-11-17T02:15:01.261Z,7.22
2022-11-17T02:17:35.033Z,7.22
2022-11-17T02:20:07.697Z,7.22
2022-11-17T02:22:52.167Z,7.21
2022-11-17T02:25:33.894Z,7.22
2022-11-17T02:28:09.494Z,7.25
2022-11-17T02:31:00.268Z,7.31
2022-11-17T02:33:59.998Z,7.31
2022-11-17T02:36:47.350Z,7.31
2022-11-17T02:39:25.163Z,7.30
2022-11-17T02:42:16.265Z,7.23
2022-11-17T02:45:02.966Z,7.20
2022-11-17T02:47:32.849Z,7.14
2022-11-17T02:50:05.151Z,7.08
2022-11-17T02:52:31.773Z,7.05
2022-11-17T02:55:06.700Z,7.03
2022-11-17T02:57:35.651Z,6.96
2022-11-17T03:00:10.842Z,6.94
2022-11-17T03:02:40.142Z,6.90
2022-11-17T03:05:17.061Z,6.84
2022-11-17T03:08:07.872Z,6.80
2022-11-17T03:10:34.321Z,6.77
2022-11-17T03:13:20.855Z,6.72
2022-11-17T03:16:05.161Z,6.61
2022-11-17T03:19:09.024Z,6.57
2022-11-17T03:21:45.217Z,6.55
2022-11-17T03:24:20.743Z,6.54
2022-11-17T03:26:53.442Z,6.50
2022-11-17T03:29:25.198Z,6.45
2022-11-17T03:31:58.450Z,6.38
2022-11-17T03:34:29.260Z,6.40
2022-11-17T03:37:09.451Z,6.39
2022-11-17T03:39:45.262Z,6.41
2022-11-17T03:42:24.573Z,6.33
2022-11-17T03:44:54.945Z,6.23
2022-11-17T03:47:25.243Z,6.19
2022-11-17T03:49:59.133Z,6.18
2022-11-17T03:52:27.010Z,6.20
2022-11-17T03:54:53.638Z,6.16
2022-11-17T03:57:33.124Z,6.10
2022-11-17T04:00:04.956Z,6.06
2022-11-17T04:02:31.688Z,6.02
2022-11-17T04:05:07.029Z,6.03
2022-11-17T04:07:36.603Z,6.04
2022-11-17T04:10:05.177Z,6.00
2022-11-17T04:12:50.203Z,6.00
2022-11-17T04:15:35.100Z,6.00
2022-11-17T04:18:01.708Z,6.02
2022-11-17T04:20:35.831Z,6.03
2022-11-17T04:23:23.099Z,6.07
2022-11-17T04:26:10.578Z,6.10
2022-11-17T04:28:40.496Z,6.09
2022-11-17T04:31:16.496Z,6.11
2022-11-17T04:33:48.398Z,6.08
2022-11-17T04:36:17.945Z,6.10
2022-11-17T04:38:46.984Z,6.11
2022-11-17T04:41:41.427Z,6.10
2022-11-17T04:44:09.419Z,6.09
2022-11-17T04:46:36.951Z,6.10
2022-11-17T04:49:04.630Z,6.12
2022-11-17T04:51:31.951Z,6.15
2022-11-17T04:53:58.892Z,6.17
2022-11-17T04:56:25.927Z,6.21
2022-11-17T04:58:52.540Z,6.17
2022-11-17T05:01:19.829Z,6.26
2022-11-17T05:03:57.769Z,6.26
2022-11-17T05:06:32.080Z,6.31
2022-11-17T05:09:00.706Z,6.28
2022-11-17T05:11:47.834Z,6.30
2022-11-17T05:14:16.597Z,6.30
2022-11-17T05:17:08.463Z,6.29
2022-11-17T05:19:41.079Z,6.25
2022-11-17T05:22:27.961Z,6.30
2022-11-17T05:24:55.113Z,6.33
2022-11-17T05:27:22.837Z,6.34
2022-11-17T05:29:49.601Z,6.31
2022-11-17T05:32:16.499Z,6.30
2022-11-17T05:34:43.087Z,6.35
2022-11-17T05:37:09.825Z,6.38
2022-11-17T05:39:36.388Z,6.38
2022-11-17T05:42:03.449Z,6.40
2022-11-17T05:44:29.944Z,6.43
2022-11-17T05:46:56.466Z,6.44
2022-11-17T05:49:24.034Z,6.43
2022-11-17T05:51:52.862Z,6.43
2022-11-17T05:54:20.036Z,6.42
2022-11-17T05:57:04.532Z,6.43
2022-11-17T05:59:45.572Z,6.44
2022-11-17T06:02:17.255Z,6.46
2022-11-17T06:04:43.921Z,6.47
2022-11-17T06:07:11.162Z,6.49
2022-11-17T06:09:41.412Z,6.51
2022-11-17T06:12:08.277Z,6.51
2022-11-17T06:14:35.700Z,6.54
2022-11-17T06:17:08.825Z,6.59
2022-11-17T06:19:43.990Z,6.57
2022-11-17T06:22:12.803Z,6.59
2022-11-17T06:24:41.948Z,6.64
2022-11-17T06:27:09.552Z,6.64
2022-11-17T06:29:39.486Z,6.67
2022-11-17T06:32:09.430Z,6.69
2022-11-17T06:34:36.118Z,6.77
2022-11-17T06:37:02.615Z,6.80
2022-11-17T06:39:29.092Z,6.82
2022-11-17T06:41:55.598Z,6.81
2022-11-17T06:44:22.064Z,6.81
2022-11-17T06:46:49.332Z,6.83
2022-11-17T06:49:16.117Z,6.81
2022-11-17T06:51:45.421Z,6.80
2022-11-17T06:54:14.715Z,6.80
2022-11-17T06:56:42.631Z,6.79
2022-11-17T06:59:09.205Z,6.78
2022-11-17T07:01:37.252Z,6.80
2022-11-17T07:04:04.055Z,6.81
2022-11-17T07:06:30.804Z,6.83
2022-11-17T07:08:57.385Z,6.80
2022-11-17T07:11:23.932Z,6.82
2022-11-17T07:13:50.467Z,6.87
2022-11-17T07:16:23.525Z,6.94
2022-11-17T07:18:50.716Z,6.97
2022-11-17T07:21:18.044Z,7.06
2022-11-17T07:23:47.473Z,7.16
2022-11-17T07:26:14.426Z,7.32
2022-11-17T07:28:41.303Z,7.45
2022-11-17T07:31:09.109Z,7.56
2022-11-17T07:33:36.750Z,7.71
2022-11-17T07:36:09.505Z,7.71
2022-11-17T07:38:37.951Z,7.78
2022-11-17T07:41:05.644Z,7.81
2022-11-17T07:43:33.640Z,7.84
2022-11-17T07:46:07.874Z,7.78
2022-11-17T07:48:35.057Z,7.77
2022-11-17T07:51:03.275Z,7.72
2022-11-17T07:53:31.618Z,7.83
2022-11-17T07:56:03.483Z,7.86
2022-11-17T07:58:30.524Z,7.96
2022-11-17T08:00:57.093Z,7.95
2022-11-17T08:03:24.429Z,7.96
2022-11-17T08:05:51.085Z,8.13
2022-11-17T08:08:17.604Z,8.20
2022-11-17T08:10:44.191Z,8.23
2022-11-17T08:13:11.490Z,8.27
2022-11-17T08:15:38.083Z,8.38
2022-11-17T08:18:04.698Z,8.46
2022-11-17T08:20:31.289Z,8.60
2022-11-17T08:22:57.852Z,8.66
2022-11-17T08:25:26.377Z,8.62
2022-11-17T08:27:58.004Z,8.68
2022-11-17T08:30:25.779Z,8.86
2022-11-17T08:32:54.484Z,9.20
2022-11-17T08:35:24.632Z,9.70
2022-11-17T08:37:51.623Z,9.95
2022-11-17T08:40:19.887Z,10.30
2022-11-17T08:42:47.500Z,10.51
2022-11-17T08:45:14.580Z,10.62
2022-11-17T08:47:41.267Z,10.69
2022-11-17T08:50:08.707Z,10.61
2022-11-17T08:52:35.408Z,10.77
2022-11-17T08:55:02.776Z,10.75
2022-11-17T08:57:30.585Z,10.44
2022-11-17T08:59:57.475Z,10.50
2022-11-17T09:02:24.562Z,10.52
2022-11-17T09:04:51.204Z,10.31
2022-11-17T09:07:18.320Z,10.34
2022-11-17T09:09:46.404Z,10.36
2022-11-17T09:12:13.044Z,10.42
2022-11-17T09:14:39.593Z,10.55
2022-11-17T09:17:06.215Z,10.51
2022-11-17T09:19:32.844Z,10.83
2022-11-17T09:21:59.876Z,10.85
2022-11-17T09:24:26.787Z,10.84
2022-11-17T09:26:54.700Z,10.89
2022-11-17T09:29:21.894Z,11.17
2022-11-17T09:31:48.625Z,11.26
2022-11-17T09:34:17.066Z,11.43
2022-11-17T09:36:43.797Z,11.92
2022-11-17T09:39:10.542Z,12.37
2022-11-17T09:41:40.027Z,12.57
2022-11-17T09:44:11.051Z,12.92
2022-11-17T09:46:46.595Z,13.34
2022-11-17T09:49:33.075Z,13.90
2022-11-17T09:52:04.785Z,13.96
2022-11-17T09:54:51.111Z,14.06
2022-11-17T09:57:34.523Z,14.22
2022-11-17T10:00:14.863Z,14.00
2022-11-17T10:02:42.926Z,14.14
2022-11-17T10:05:20.828Z,14.59
2022-11-17T10:07:50.229Z,14.45
2022-11-17T10:10:21.772Z,15.13
2022-11-17T10:12:55.899Z,15.25
2022-11-17T10:15:30.794Z,15.30
2022-11-17T10:17:57.310Z,15.63
2022-11-17T10:20:23.921Z,15.50
2022-11-17T10:22:54.031Z,15.38
2022-11-17T10:25:41.933Z,15.76
2022-11-17T10:28:24.285Z,16.57
2022-11-17T10:31:03.171Z,16.60
2022-11-17T10:33:44.226Z,16.17
2022-11-17T10:36:14.323Z,15.70
2022-11-17T10:38:48.780Z,15.39
2022-11-17T10:41:19.331Z,15.86
2022-11-17T10:43:58.140Z,15.82
2022-11-17T10:46:24.732Z,15.87
2022-11-17T10:49:07.035Z,16.06
2022-11-17T10:51:35.664Z,15.01
2022-11-17T10:54:17.360Z,14.38
2022-11-17T10:56:54.621Z,14.08
2022-11-17T10:59:30.018Z,13.88
2022-11-17T11:01:56.767Z,13.42
2022-11-17T11:04:33.375Z,13.22
2022-11-17T11:07:19.273Z,13.18
2022-11-17T11:09:48.822Z,12.85
2022-11-17T11:12:20.983Z,12.96
2022-11-17T11:14:53.775Z,12.57
2022-11-17T11:17:20.446Z,12.67
2022-11-17T11:19:54.090Z,12.99
2022-11-17T11:22:35.715Z,13.02
2022-11-17T11:25:16.465Z,13.12
2022-11-17T11:28:08.700Z,12.87
2022-11-17T11:30:47.404Z,12.25
2022-11-17T11:33:35.887Z,11.99
2022-11-17T11:36:36.992Z,11.82
2022-11-17T11:39:15.263Z,11.52
2022-11-17T11:42:24.330Z,11.60
2022-11-17T11:45:12.229Z,11.39
2022-11-17T11:47:56.776Z,11.38
2022-11-17T11:50:26.669Z,11.48
2022-11-17T11:53:16.912Z,11.68
2022-11-17T11:55:48.177Z,11.58
2022-11-17T11:58:21.334Z,11.69
2022-11-17T12:00:52.670Z,11.83
2022-11-17T12:03:33.843Z,11.78
2022-11-17T12:06:38.111Z,12.09
2022-11-17T12:09:13.731Z,12.47
2022-11-17T12:12:00.521Z,12.91
2022-11-17T12:14:32.451Z,13.10
2022-11-17T12:17:13.845Z,12.98
2022-11-17T12:19:50.754Z,13.06
2022-11-17T12:22:26.348Z,12.93
2022-11-17T12:24:57.483Z,12.64
2022-11-17T12:27:36.030Z,12.52
2022-11-17T12:30:05.272Z,12.57
2022-11-17T12:32:44.041Z,12.41
2022-11-17T12:35:19.773Z,12.31
2022-11-17T12:37:46.403Z,12.42
2022-11-17T12:40:54.762Z,12.52
2022-11-17T12:43:23.636Z,13.11
2022-11-17T12:45:55.870Z,13.64
2022-11-17T12:48:35.142Z,14.12
2022-11-17T12:51:43.313Z,14.86
2022-11-17T12:54:24.526Z,15.46
2022-11-17T12:57:03.797Z,15.91
2022-11-17T12:59:30.235Z,16.52
2022-11-17T13:02:15.509Z,16.77
2022-11-17T13:04:58.604Z,16.58
2022-11-17T13:07:26.698Z,15.82
2022-11-17T13:09:57.269Z,15.56
2022-11-17T13:12:28.826Z,15.37
2022-11-17T13:14:57.476Z,15.06
2022-11-17T13:17:30.754Z,14.82
2022-11-17T13:19:59.510Z,14.93
2022-11-17T13:22:26.599Z,14.68
2022-11-17T13:24:53.975Z,14.80
2022-11-17T13:27:29.557Z,14.70
2022-11-17T13:30:14.963Z,14.42
2022-11-17T13:32:42.654Z,14.09
2022-11-17T13:35:38.426Z,13.58
2022-11-17T13:38:24.410Z,13.52
2022-11-17T13:40:53.422Z,13.09
2022-11-17T13:43:22.159Z,12.85
2022-11-17T13:45:53.387Z,12.59
2022-11-17T13:48:40.328Z,12.60
2022-11-17T13:51:29.347Z,12.61
2022-11-17T13:54:06.797Z,12.44
2022-11-17T13:56:40.720Z,12.32
2022-11-17T13:59:38.702Z,12.13
2022-11-17T14:02:17.165Z,11.98
2022-11-17T14:05:14.220Z,11.86
2022-11-17T14:07:42.740Z,11.84
2022-11-17T14:10:15.364Z,11.76
2022-11-17T14:12:42.371Z,11.79
2022-11-17T14:15:31.658Z,11.82
2022-11-17T14:18:00.120Z,11.92
2022-11-17T14:20:36.368Z,12.08
2022-11-17T14:23:04.391Z,12.13
2022-11-17T14:25:34.775Z,12.10
2022-11-17T14:28:01.599Z,12.03
2022-11-17T14:30:28.285Z,11.98
2022-11-17T14:32:58.284Z,11.84
2022-11-17T14:35:30.199Z,11.73
2022-11-17T14:37:56.912Z,11.59
2022-11-17T14:40:23.446Z,11.53
2022-11-17T14:42:49.939Z,11.41
2022-11-17T14:45:19.316Z,11.34
2022-11-17T14:47:45.955Z,11.33
2022-11-17T14:50:15.799Z,11.30
2022-11-17T14:52:43.798Z,11.34
2022-11-17T14:55:12.254Z,11.25
2022-11-17T14:57:39.595Z,11.17
2022-11-17T15:00:08.488Z,11.09
2022-11-17T15:02:36.405Z,10.99
2022-11-17T15:05:03.651Z,10.90
2022-11-17T15:07:30.287Z,10.96
2022-11-17T15:09:57.368Z,11.10
2022-11-17T15:12:23.988Z,11.07
2022-11-17T15:14:50.597Z,10.95
2022-11-17T15:17:17.334Z,10.80
2022-11-17T15:19:44.029Z,10.73
2022-11-17T15:22:10.955Z,10.68
2022-11-17T15:24:37.534Z,10.62
2022-11-17T15:27:04.257Z,10.58
2022-11-17T15:29:30.762Z,10.54
2022-11-17T15:31:57.286Z,10.45
2022-11-17T15:34:23.800Z,10.40
2022-11-17T15:36:50.299Z,10.43
2022-11-17T15:39:17.396Z,10.45
2022-11-17T15:41:44.959Z,10.43
2022-11-17T15:44:11.446Z,10.31
2022-11-17T15:46:39.656Z,10.16
2022-11-17T15:49:09.458Z,10.16
2022-11-17T15:51:36.126Z,10.16
2022-11-17T15:54:03.038Z,10.08
2022-11-17T15:56:33.727Z,10.11
2022-11-17T15:59:03.156Z,10.15
2022-11-17T16:01:34.672Z,10.07
2022-11-17T16:04:12.502Z,9.93
2022-11-17T16:06:41.441Z,9.98
2022-11-17T16:09:09.559Z,10.08
2022-11-17T16:11:37.121Z,10.09
2022-11-17T16:14:05.281Z,10.08
2022-11-17T16:16:35.520Z,10.03
2022-11-17T16:19:02.457Z,10.02
2022-11-17T16:21:29.294Z,9.94
2022-11-17T16:23:57.768Z,9.94
2022-11-17T16:26:26.436Z,9.87
2022-11-17T16:29:00.405Z,9.88
2022-11-17T16:31:31.268Z,9.96
2022-11-17T16:34:03.074Z,9.96
2022-11-17T16:36:36.238Z,9.99
2022-11-17T16:39:05.724Z,9.97
2022-11-17T16:41:38.304Z,9.91
2022-11-17T16:44:16.375Z,9.92
2022-11-17T16:46:45.210Z,9.99
2022-11-17T16:49:14.301Z,10.03
2022-11-17T16:51:41.420Z,9.99
2022-11-17T16:54:12.461Z,9.93
2022-11-17T16:56:39.294Z,9.88
2022-11-17T16:59:05.818Z,9.88
2022-11-17T17:01:34.683Z,9.84
2022-11-17T17:04:04.055Z,9.77
2022-11-17T17:06:31.210Z,9.62
2022-11-17T17:09:00.437Z,9.59
2022-11-17T17:11:29.196Z,9.58
2022-11-17T17:13:58.495Z,9.60
2022-11-17T17:16:25.824Z,9.63
2022-11-17T17:19:00.542Z,9.64
2022-11-17T17:21:28.982Z,9.65
2022-11-17T17:23:55.828Z,9.64
2022-11-17T17:26:24.579Z,9.63
2022-11-17T17:28:54.071Z,9.66
2022-11-17T17:31:22.563Z,9.67
2022-11-17T17:33:52.030Z,9.65
2022-11-17T17:36:21.485Z,9.61
2022-11-17T17:38:54.590Z,9.58
2022-11-17T17:41:23.111Z,9.59
2022-11-17T17:44:01.394Z,9.57
2022-11-17T17:46:31.529Z,9.57
2022-11-17T17:48:58.781Z,9.57
2022-11-17T17:51:27.674Z,9.59
2022-11-17T17:53:57.933Z,9.58
2022-11-17T17:56:24.613Z,9.56
2022-11-17T17:58:51.897Z,9.60
2022-11-17T18:01:22.752Z,9.55
2022-11-17T18:03:51.028Z,9.51
2022-11-17T18:06:19.579Z,9.49
2022-11-17T18:08:46.659Z,9.51
2022-11-17T18:11:18.989Z,9.48
2022-11-17T18:13:50.386Z,9.46
2022-11-17T18:16:21.556Z,9.45
2022-11-17T18:18:48.659Z,9.44
2022-11-17T18:21:17.956Z,9.42
2022-11-17T18:23:45.353Z,9.43
2022-11-17T18:26:16.628Z,9.38
2022-11-17T18:28:45.115Z,9.36
2022-11-17T18:31:11.811Z,9.36
2022-11-17T18:33:38.494Z,9.29
2022-11-17T18:36:07.242Z,9.26
2022-11-17T18:38:36.125Z,9.25
2022-11-17T18:41:04.603Z,9.27
2022-11-17T18:43:31.964Z,9.26
2022-11-17T18:46:03.547Z,9.26
2022-11-17T18:48:35.118Z,9.24
2022-11-17T18:51:19.207Z,9.19
2022-11-17T18:53:47.566Z,9.18
2022-11-17T18:56:17.443Z,9.15
2022-11-17T18:58:44.304Z,9.13
2022-11-17T19:01:33.864Z,9.13
2022-11-17T19:04:01.127Z,9.13
2022-11-17T19:06:28.175Z,9.11
2022-11-17T19:08:54.935Z,9.05
2022-11-17T19:11:22.730Z,9.05
2022-11-17T19:13:50.005Z,9.06
2022-11-17T19:16:19.548Z,9.05
2022-11-17T19:18:48.386Z,9.05
2022-11-17T19:21:18.331Z,9.04
2022-11-17T19:23:51.435Z,9.06
2022-11-17T19:26:24.052Z,9.04
2022-11-17T19:28:50.852Z,9.06
2022-11-17T19:31:20.453Z,9.08
2022-11-17T19:33:48.415Z,9.10
2022-11-17T19:36:26.619Z,9.08
2022-11-17T19:38:55.996Z,9.04
2022-11-17T19:41:31.555Z,9.02
2022-11-17T19:44:00.118Z,9.00
2022-11-17T19:46:28.298Z,8.93
2022-11-17T19:48:56.166Z,8.95
2022-11-17T19:51:29.135Z,8.92
2022-11-17T19:53:57.739Z,8.93
2022-11-17T19:56:25.771Z,8.91
2022-11-17T19:58:53.750Z,8.92
2022-11-17T20:01:24.487Z,8.94
2022-11-17T20:03:51.463Z,8.98
2022-11-17T20:06:20.831Z,9.02
2022-11-17T20:08:48.444Z,9.03
2022-11-17T20:11:20.692Z,8.98
2022-11-17T20:13:47.782Z,8.94
2022-11-17T20:16:20.024Z,8.97
2022-11-17T20:18:50.897Z,8.98
2022-11-17T20:21:18.506Z,8.97
2022-11-17T20:23:45.844Z,8.93
2022-11-17T20:26:23.978Z,8.92
2022-11-17T20:28:51.059Z,8.88
2022-11-17T20:31:19.478Z,8.81
2022-11-17T20:33:47.199Z,8.77
2022-11-17T20:36:21.438Z,8.74
2022-11-17T20:38:52.085Z,8.71
2022-11-17T20:41:20.836Z,8.64
2022-11-17T20:43:49.483Z,8.62
2022-11-17T20:46:16.159Z,8.64
2022-11-17T20:48:42.828Z,8.66
2022-11-17T20:51:15.094Z,8.67
2022-11-17T20:53:41.836Z,8.63
2022-11-17T20:56:10.058Z,8.62
2022-11-17T20:58:37.254Z,8.64
2022-11-17T21:01:14.987Z,8.70
2022-11-17T21:03:42.271Z,8.71
2022-11-17T21:06:09.299Z,8.64
2022-11-17T21:08:37.746Z,8.55
2022-11-17T21:11:06.955Z,8.49
2022-11-17T21:13:35.395Z,8.42
2022-11-17T21:16:15.306Z,8.33
2022-11-17T21:18:47.204Z,8.28
2022-11-17T21:21:14.378Z,8.22
2022-11-17T21:23:42.063Z,8.22
2022-11-17T21:26:14.039Z,8.18
2022-11-17T21:28:41.214Z,8.12
2022-11-17T21:31:11.846Z,8.06
2022-11-17T21:33:38.694Z,7.96
2022-11-17T21:36:11.030Z,7.94
2022-11-17T21:38:38.228Z,7.88
2022-11-17T21:41:16.933Z,7.89
2022-11-17T21:43:45.183Z,7.90
2022-11-17T21:46:14.949Z,7.88
2022-11-17T21:48:41.860Z,7.84
2022-11-17T21:51:15.327Z,7.82
2022-11-17T21:53:42.107Z,7.80
2022-11-17T21:56:08.943Z,7.79
2022-11-17T21:58:35.687Z,7.75
2022-11-17T22:01:14.376Z,7.74
2022-11-17T22:03:42.580Z,7.71
2022-11-17T22:06:18.189Z,7.69
2022-11-17T22:08:45.584Z,7.61
2022-11-17T22:11:15.308Z,7.61
2022-11-17T22:13:42.845Z,7.55
2022-11-17T22:16:13.984Z,7.51
2022-11-17T22:18:41.485Z,7.45
2022-11-17T22:21:09.577Z,7.43
2022-11-17T22:23:54.740Z,7.41
2022-11-17T22:26:21.360Z,7.38
2022-11-17T22:28:53.110Z,7.35
2022-11-17T22:31:21.987Z,7.27
2022-11-17T22:33:49.917Z,7.24
2022-11-17T22:36:17.282Z,7.22
2022-11-17T22:38:44.781Z,7.21
2022-11-17T22:41:12.720Z,7.16
2022-11-17T22:43:39.381Z,7.09
2022-11-17T22:46:09.658Z,6.99
2022-11-17T22:48:37.643Z,6.94
2022-11-17T22:51:05.437Z,6.96
2022-11-17T22:53:33.093Z,6.96
2022-11-17T22:56:07.787Z,6.91
2022-11-17T22:58:34.204Z,6.89
2022-11-17T23:01:05.889Z,6.80
2022-11-17T23:03:32.978Z,6.78
2022-11-17T23:06:04.403Z,6.78
2022-11-17T23:08:31.971Z,6.76
2022-11-17T23:11:34.854Z,6.75
2022-11-17T23:13:49.416Z,6.75
2022-11-17T23:16:15.947Z,6.72
2022-11-17T23:18:42.520Z,6.80
2022-11-17T23:21:10.997Z,6.67
2022-11-17T23:23:40.246Z,6.56
2022-11-17T23:26:09.933Z,6.50
2022-11-17T23:28:40.797Z,6.41
2022-11-17T23:31:11.620Z,6.44
2022-11-17T23:33:43.366Z,6.42
2022-11-17T23:36:18.723Z,6.36
2022-11-17T23:38:45.826Z,6.36
2022-11-17T23:41:14.828Z,6.38
2022-11-17T23:43:42.315Z,6.45
2022-11-17T23:46:16.959Z,6.51
2022-11-17T23:48:43.659Z,6.46
2022-11-17T23:51:12.771Z,6.45
2022-11-17T23:53:39.393Z,6.44
2022-11-17T23:56:06.939Z,6.38
2022-11-17T23:58:33.599Z,6.35
